Time;durP1;ratioP1;P1;durP2;ratioP2;P2;SDS_P1;SDS_P2;PMS_P1;PMS_P2;Temp;Humidity;BMP_temperature;BMP_pressure;BME280_temperature;BME280_humidity;BME280_pressure;Samples;Min_cycle;Max_cycle;Signal;HPM_P1;HPM_P2
2024/03/03 00:01:11;;;;;;;23.77;16.40;;;7.20;99.90;;;;;;5033067;28;20568;-63
2024/03/03 00:03:39;;;;;;;20.63;16.15;;;7.20;99.90;;;;;;5033666;28;20202;-62
2024/03/03 00:06:06;;;;;;;24.30;16.13;;;7.20;99.90;;;;;;5033526;28;20233;-63
2024/03/03 00:08:33;;;;;;;27.33;17.05;;;7.20;99.90;;;;;;5033403;28;20703;-63
2024/03/03 00:10:59;;;;;;;27.65;17.17;;;7.20;99.90;;;;;;5033501;28;20217;-63
2024/03/03 00:13:28;;;;;;;22.83;16.52;;;7.20;99.90;;;;;;5033123;28;20206;-63
2024/03/03 00:15:55;;;;;;;23.23;17.02;;;7.20;99.90;;;;;;5034158;28;20222;-63
2024/03/03 00:18:22;;;;;;;22.73;16.52;;;7.20;99.90;;;;;;5032806;28;20214;-63
2024/03/03 00:20:50;;;;;;;25.98;17.13;;;7.20;99.90;;;;;;5032859;28;20202;-62
2024/03/03 00:23:17;;;;;;;28.80;18.13;;;7.20;99.90;;;;;;5033452;28;20209;-64
2024/03/03 00:25:43;;;;;;;26.15;18.58;;;7.10;99.90;;;;;;5033648;28;20234;-63
2024/03/03 00:28:10;;;;;;;25.45;17.40;;;7.20;99.90;;;;;;5033799;28;20232;-64
2024/03/03 00:30:37;;;;;;;27.55;17.98;;;7.20;99.90;;;;;;5038671;28;20206;-64
2024/03/03 00:33:04;;;;;;;24.85;17.42;;;7.20;99.90;;;;;;5037065;28;20256;-63
2024/03/03 00:35:31;;;;;;;23.10;16.70;;;7.10;99.90;;;;;;5037240;28;20244;-63
2024/03/03 00:37:59;;;;;;;26.00;17.10;;;7.10;99.90;;;;;;5037457;28;20222;-63
2024/03/03 00:40:26;;;;;;;26.55;18.20;;;7.10;99.90;;;;;;5037230;28;20569;-63
2024/03/03 00:42:52;;;;;;;22.10;16.00;;;7.10;99.90;;;;;;5037180;28;20232;-63
2024/03/03 00:45:19;;;;;;;27.88;17.35;;;7.10;99.90;;;;;;5036729;28;20712;-63
2024/03/03 00:47:46;;;;;;;29.08;18.17;;;7.10;99.90;;;;;;5037697;28;20195;-63
2024/03/03 00:50:13;;;;;;;25.38;17.52;;;7.00;99.90;;;;;;5036987;28;20206;-63
2024/03/03 00:52:40;;;;;;;25.40;17.45;;;7.00;99.90;;;;;;5037031;28;20213;-63
2024/03/03 00:55:10;;;;;;;26.17;18.65;;;7.00;99.90;;;;;;5036557;28;20222;-63
2024/03/03 00:57:37;;;;;;;26.27;18.65;;;7.00;99.90;;;;;;5036689;28;20206;-62
2024/03/03 01:00:04;;;;;;;26.48;19.17;;;6.90;99.90;;;;;;5041044;28;20202;-63
2024/03/03 01:02:31;;;;;;;30.52;19.77;;;6.90;99.90;;;;;;5042084;28;20252;-63
2024/03/03 01:04:58;;;;;;;25.50;17.50;;;6.90;99.90;;;;;;5040435;28;20222;-62
2024/03/03 01:07:24;;;;;;;24.40;18.30;;;6.90;99.90;;;;;;5040464;28;20203;-63
2024/03/03 01:09:51;;;;;;;29.27;19.80;;;6.90;99.90;;;;;;5040972;28;20225;-62
2024/03/03 01:12:19;;;;;;;27.55;19.35;;;6.90;99.90;;;;;;5039422;28;20213;-63
2024/03/03 01:14:46;;;;;;;29.05;18.90;;;6.80;99.90;;;;;;5038096;28;20333;-62
2024/03/03 01:17:13;;;;;;;27.92;19.50;;;6.80;99.90;;;;;;5038018;28;20207;-64
2024/03/03 01:19:39;;;;;;;30.60;19.02;;;6.80;99.90;;;;;;5038396;28;20229;-62
2024/03/03 01:22:07;;;;;;;29.02;19.17;;;6.80;99.90;;;;;;5037893;28;20213;-63
2024/03/03 01:24:33;;;;;;;31.63;19.55;;;6.70;99.90;;;;;;5038440;28;20241;-63
2024/03/03 01:27:00;;;;;;;31.95;19.85;;;6.70;99.90;;;;;;5040220;28;20202;-62
2024/03/03 01:29:28;;;;;;;35.80;21.67;;;6.70;99.90;;;;;;5040395;28;20285;-63
2024/03/03 01:31:55;;;;;;;30.48;19.58;;;6.70;99.90;;;;;;5042923;28;20558;-62
2024/03/03 01:34:23;;;;;;;31.77;21.98;;;6.70;99.90;;;;;;5044202;28;20313;-63
2024/03/03 01:36:49;;;;;;;31.00;19.90;;;6.60;99.90;;;;;;5039972;28;20206;-63
2024/03/03 01:39:16;;;;;;;34.90;20.92;;;6.60;99.90;;;;;;5046076;28;20586;-63
2024/03/03 01:41:45;;;;;;;34.95;22.23;;;6.60;99.90;;;;;;5044427;28;20297;-62
2024/03/03 01:44:12;;;;;;;33.50;20.75;;;6.60;99.90;;;;;;5043097;28;20230;-64
2024/03/03 01:46:40;;;;;;;36.17;22.58;;;6.60;99.90;;;;;;5038784;28;20209;-63
2024/03/03 01:49:08;;;;;;;37.00;21.98;;;6.60;99.90;;;;;;5037298;28;20198;-63
2024/03/03 01:51:35;;;;;;;32.33;21.13;;;6.60;99.90;;;;;;5037579;28;20202;-63
2024/03/03 01:54:04;;;;;;;35.30;21.75;;;6.50;99.90;;;;;;5036071;28;20229;-63
2024/03/03 01:56:32;;;;;;;33.80;21.95;;;6.50;99.90;;;;;;5036576;28;20206;-63
2024/03/03 01:59:02;;;;;;;32.05;20.70;;;6.50;99.90;;;;;;5036614;28;20229;-63
2024/03/03 02:01:31;;;;;;;34.78;21.83;;;6.40;99.90;;;;;;5036386;28;20203;-63
2024/03/03 02:03:59;;;;;;;36.53;22.80;;;6.40;99.90;;;;;;5036100;28;20203;-63
2024/03/03 02:06:31;;;;;;;38.58;21.10;;;6.40;99.90;;;;;;5035477;28;20214;-63
2024/03/03 02:08:59;;;;;;;35.60;20.50;;;6.40;99.90;;;;;;5039540;28;20193;-63
2024/03/03 02:11:25;;;;;;;33.67;21.63;;;6.40;99.90;;;;;;5044244;28;20574;-64
2024/03/03 02:13:52;;;;;;;37.08;21.85;;;6.30;99.90;;;;;;5044999;28;20198;-64
2024/03/03 02:16:19;;;;;;;34.63;20.92;;;6.30;99.90;;;;;;5044756;28;20226;-63
2024/03/03 02:18:46;;;;;;;31.35;21.13;;;6.30;99.90;;;;;;5042834;28;20214;-63
2024/03/03 02:21:14;;;;;;;34.10;22.42;;;6.20;99.90;;;;;;5038443;28;20206;-63
2024/03/03 02:23:42;;;;;;;35.88;21.80;;;6.20;99.90;;;;;;5039437;28;20693;-65
2024/03/03 02:26:09;;;;;;;30.35;20.70;;;6.20;99.90;;;;;;5037790;28;20290;-63
2024/03/03 02:28:35;;;;;;;37.25;21.33;;;6.20;99.90;;;;;;5039883;28;20199;-62
2024/03/03 02:31:03;;;;;;;31.42;20.95;;;6.10;99.90;;;;;;5039287;28;20199;-63
2024/03/03 02:33:30;;;;;;;33.70;21.60;;;6.10;99.90;;;;;;5039221;28;20206;-62
2024/03/03 02:35:56;;;;;;;33.05;22.92;;;6.00;99.90;;;;;;5038290;28;20222;-62
2024/03/03 02:38:23;;;;;;;39.88;22.30;;;6.00;99.90;;;;;;5040769;28;20254;-63
2024/03/03 02:40:51;;;;;;;40.15;22.50;;;6.00;99.90;;;;;;5039313;28;20202;-63
2024/03/03 02:43:18;;;;;;;36.40;22.63;;;5.90;99.90;;;;;;5036918;28;20668;-62
2024/03/03 02:45:44;;;;;;;43.63;24.27;;;5.90;99.90;;;;;;5037208;28;20240;-63
2024/03/03 02:48:11;;;;;;;37.85;23.70;;;5.90;99.90;;;;;;5037799;28;20229;-62
2024/03/03 02:50:38;;;;;;;40.33;22.20;;;5.90;99.90;;;;;;5035822;28;20207;-62
2024/03/03 02:53:05;;;;;;;34.70;22.35;;;5.90;99.90;;;;;;5034065;28;20835;-62
2024/03/03 02:55:32;;;;;;;41.95;24.95;;;5.80;99.90;;;;;;5035207;28;20237;-62
2024/03/03 02:58:00;;;;;;;37.70;23.45;;;5.80;99.90;;;;;;5036396;28;20207;-63
2024/03/03 03:00:27;;;;;;;34.05;22.77;;;5.80;99.90;;;;;;5034608;28;20536;-63
2024/03/03 03:02:54;;;;;;;42.97;23.10;;;5.80;99.90;;;;;;5035736;28;20202;-63
2024/03/03 03:05:20;;;;;;;39.63;23.88;;;5.80;99.90;;;;;;5035428;28;20222;-62
2024/03/03 03:07:47;;;;;;;41.35;24.25;;;5.80;99.90;;;;;;5035440;28;20672;-61
2024/03/03 03:10:14;;;;;;;40.55;22.02;;;5.80;99.90;;;;;;5034312;28;20210;-61
2024/03/03 03:12:40;;;;;;;38.40;23.63;;;5.80;99.90;;;;;;5033705;28;20648;-62
2024/03/03 03:15:09;;;;;;;39.08;24.55;;;5.70;99.90;;;;;;5034268;28;20233;-63
2024/03/03 03:17:36;;;;;;;41.42;22.88;;;5.70;99.90;;;;;;5034664;28;20580;-63
2024/03/03 03:20:04;;;;;;;37.00;23.13;;;5.60;99.90;;;;;;5034210;28;20298;-62
2024/03/03 03:22:31;;;;;;;39.97;23.90;;;5.60;99.90;;;;;;5034513;28;20208;-62
2024/03/03 03:24:57;;;;;;;41.30;25.42;;;5.60;99.90;;;;;;5033818;28;20238;-63
2024/03/03 03:27:24;;;;;;;38.78;23.10;;;5.60;99.90;;;;;;5033976;28;20213;-62
2024/03/03 03:29:51;;;;;;;44.35;24.83;;;5.60;99.90;;;;;;5033614;28;20249;-63
2024/03/03 03:32:19;;;;;;;40.17;24.25;;;5.50;99.90;;;;;;5033455;28;20218;-62
2024/03/03 03:34:46;;;;;;;39.42;24.70;;;5.50;99.90;;;;;;5033671;28;20287;-63
2024/03/03 03:37:13;;;;;;;44.42;25.13;;;5.50;99.90;;;;;;5033447;28;20256;-62
2024/03/03 03:39:40;;;;;;;43.03;25.88;;;5.50;99.90;;;;;;5033440;28;20561;-62
2024/03/03 03:42:07;;;;;;;38.72;22.95;;;5.50;99.90;;;;;;5033319;28;20210;-62
2024/03/03 03:44:34;;;;;;;38.80;24.40;;;5.50;99.90;;;;;;5033418;28;20314;-62
2024/03/03 03:47:02;;;;;;;50.80;26.10;;;5.40;99.90;;;;;;5033455;28;20198;-62
2024/03/03 03:49:30;;;;;;;37.88;22.77;;;5.40;99.90;;;;;;5033172;28;20201;-62
2024/03/03 03:51:58;;;;;;;47.10;26.45;;;5.40;99.90;;;;;;5033326;28;20206;-63
2024/03/03 03:54:25;;;;;;;43.90;25.55;;;5.40;99.90;;;;;;5033098;28;20222;-62
2024/03/03 03:56:52;;;;;;;46.13;25.70;;;5.40;99.90;;;;;;5033323;28;20198;-62
2024/03/03 03:59:19;;;;;;;49.42;26.33;;;5.30;99.90;;;;;;5032801;28;20221;-62
2024/03/03 04:01:45;;;;;;;43.42;25.48;;;5.30;99.90;;;;;;5033132;28;20214;-63
2024/03/03 04:04:13;;;;;;;43.97;26.10;;;5.30;99.90;;;;;;5032592;28;20276;-63
2024/03/03 04:06:41;;;;;;;48.80;26.83;;;5.30;99.90;;;;;;5032872;28;20241;-62
2024/03/03 04:09:07;;;;;;;44.83;25.77;;;5.30;99.90;;;;;;5032976;28;20209;-63
2024/03/03 04:13:17;;;;;;;41.80;26.70;;;5.30;99.90;;;;;;5111475;27;20560;-63
2024/03/03 04:15:43;;;;;;;50.97;26.33;;;5.30;99.90;;;;;;5110996;28;20215;-64
2024/03/03 04:18:10;;;;;;;51.08;27.25;;;5.20;99.90;;;;;;5111169;28;20211;-62
2024/03/03 04:20:37;;;;;;;51.58;27.95;;;5.30;99.90;;;;;;5110918;28;20692;-63
2024/03/03 04:23:04;;;;;;;51.50;27.23;;;5.20;99.90;;;;;;5111065;28;20202;-63
2024/03/03 04:25:30;;;;;;;58.35;28.95;;;5.20;99.90;;;;;;5112110;28;20337;-63
2024/03/03 04:27:57;;;;;;;48.55;28.95;;;5.20;99.90;;;;;;5111560;28;20211;-63
2024/03/03 04:30:26;;;;;;;51.58;29.70;;;5.20;99.90;;;;;;5111641;28;20207;-63
2024/03/03 04:32:53;;;;;;;48.83;27.15;;;5.10;99.90;;;;;;5112676;28;20220;-64
2024/03/03 04:35:19;;;;;;;47.60;27.70;;;5.10;99.90;;;;;;5111834;28;20231;-63
2024/03/03 04:37:46;;;;;;;49.58;28.65;;;5.10;99.90;;;;;;5112962;28;20210;-63
2024/03/03 04:40:13;;;;;;;50.58;28.13;;;5.10;99.90;;;;;;5114106;28;20207;-62
2024/03/03 04:42:40;;;;;;;58.50;30.65;;;5.10;99.90;;;;;;5122009;28;20196;-63
2024/03/03 04:45:07;;;;;;;52.58;28.33;;;5.10;99.90;;;;;;5122219;28;20243;-63
2024/03/03 04:47:36;;;;;;;52.72;27.85;;;5.10;99.90;;;;;;5116854;28;20204;-63
2024/03/03 04:50:02;;;;;;;57.33;29.75;;;5.10;99.90;;;;;;5114350;28;20200;-63
2024/03/03 04:52:29;;;;;;;46.83;28.10;;;5.10;99.90;;;;;;5113507;28;20222;-63
2024/03/03 04:54:56;;;;;;;56.08;30.60;;;5.00;99.90;;;;;;5113334;28;20226;-64
2024/03/03 04:57:23;;;;;;;52.00;29.20;;;5.00;99.90;;;;;;5112849;28;20683;-63
2024/03/03 04:59:49;;;;;;;50.97;30.25;;;5.00;99.90;;;;;;5111803;28;20204;-64
2024/03/03 05:02:18;;;;;;;58.45;28.88;;;5.00;99.90;;;;;;5111215;28;20208;-63
2024/03/03 05:04:46;;;;;;;47.20;29.17;;;5.00;99.90;;;;;;5111311;28;20247;-63
2024/03/03 05:07:13;;;;;;;59.83;29.88;;;5.00;99.90;;;;;;5112365;28;20196;-62
2024/03/03 05:09:40;;;;;;;56.15;29.38;;;5.00;99.90;;;;;;5111389;28;20207;-61
2024/03/03 05:12:07;;;;;;;49.15;28.60;;;5.00;99.90;;;;;;5112719;28;20216;-63
2024/03/03 05:14:34;;;;;;;52.60;29.85;;;4.90;99.90;;;;;;5113899;28;20296;-63
2024/03/03 05:17:01;;;;;;;47.30;29.27;;;4.90;99.90;;;;;;5115050;28;20206;-63
2024/03/03 05:19:28;;;;;;;59.53;30.08;;;4.90;99.90;;;;;;5117458;28;20267;-62
2024/03/03 05:21:56;;;;;;;45.38;28.88;;;4.90;99.90;;;;;;5117567;28;20203;-63
2024/03/03 05:24:23;;;;;;;53.58;28.02;;;4.80;99.90;;;;;;5105153;28;20221;-63
2024/03/03 05:26:52;;;;;;;62.08;30.25;;;4.80;99.90;;;;;;5106222;28;20265;-64
2024/03/03 05:29:19;;;;;;;64.95;32.80;;;4.80;99.90;;;;;;5109378;28;20215;-63
2024/03/03 05:31:45;;;;;;;57.40;30.30;;;4.80;99.90;;;;;;5109448;28;20216;-62
2024/03/03 05:34:13;;;;;;;56.75;30.45;;;4.80;99.90;;;;;;5107315;28;20223;-63
2024/03/03 05:36:41;;;;;;;56.83;31.50;;;4.80;99.90;;;;;;5111795;28;20200;-63
2024/03/03 05:39:10;;;;;;;54.10;31.45;;;4.80;99.90;;;;;;5114045;28;20670;-62
2024/03/03 05:41:36;;;;;;;65.63;33.58;;;4.80;99.90;;;;;;5112993;28;20200;-63
2024/03/03 05:44:04;;;;;;;54.05;29.73;;;4.80;99.90;;;;;;5101069;28;20610;-64
2024/03/03 05:46:30;;;;;;;54.92;29.50;;;4.80;99.90;;;;;;5096123;28;20522;-62
2024/03/03 05:48:57;;;;;;;55.15;31.45;;;4.80;99.90;;;;;;5096440;28;20211;-63
2024/03/03 05:51:24;;;;;;;52.80;30.75;;;4.70;99.90;;;;;;5096005;28;20688;-63
2024/03/03 05:53:51;;;;;;;60.70;31.10;;;4.70;99.90;;;;;;5096421;28;20200;-62
2024/03/03 05:56:19;;;;;;;53.08;31.77;;;4.70;99.90;;;;;;5096262;28;20567;-63
2024/03/03 05:58:46;;;;;;;59.13;31.17;;;4.70;99.90;;;;;;5099078;28;20296;-62
2024/03/03 06:01:13;;;;;;;59.80;32.13;;;4.70;99.90;;;;;;5101236;28;20567;-61
2024/03/03 06:03:41;;;;;;;57.00;30.42;;;4.70;99.90;;;;;;5103058;28;20561;-63
2024/03/03 06:06:09;;;;;;;57.03;31.77;;;4.70;99.90;;;;;;5103454;28;20196;-63
2024/03/03 06:08:40;;;;;;;58.13;32.83;;;4.70;99.90;;;;;;5102428;28;20571;-62
2024/03/03 06:11:08;;;;;;;52.63;30.27;;;4.70;99.90;;;;;;5101994;28;20211;-62
2024/03/03 06:13:36;;;;;;;60.60;32.60;;;4.70;99.90;;;;;;5096758;28;20259;-63
2024/03/03 06:16:03;;;;;;;59.90;32.50;;;4.70;99.90;;;;;;5095537;28;20220;-63
2024/03/03 06:18:30;;;;;;;57.00;32.00;;;4.70;99.90;;;;;;5095426;28;20211;-63
2024/03/03 06:20:57;;;;;;;59.80;31.45;;;4.70;99.90;;;;;;5095802;28;20243;-63
2024/03/03 06:23:25;;;;;;;64.75;34.08;;;4.70;99.90;;;;;;5095084;28;20689;-63
2024/03/03 06:25:51;;;;;;;67.85;34.92;;;4.70;99.90;;;;;;5095139;28;20636;-63
2024/03/03 06:28:18;;;;;;;64.90;32.72;;;4.70;99.90;;;;;;5095174;28;20204;-64
2024/03/03 06:30:47;;;;;;;66.32;33.33;;;4.70;99.90;;;;;;5095927;28;20197;-64
2024/03/03 06:33:14;;;;;;;58.67;32.15;;;4.70;99.90;;;;;;5095157;28;20702;-62
2024/03/03 06:35:40;;;;;;;63.08;33.03;;;4.70;99.90;;;;;;5094157;28;20568;-62
2024/03/03 06:38:07;;;;;;;56.10;33.35;;;4.70;99.90;;;;;;5095034;28;20204;-62
2024/03/03 06:40:34;;;;;;;64.63;33.67;;;4.70;99.90;;;;;;5094948;28;20215;-63
2024/03/03 06:43:00;;;;;;;57.45;30.70;;;4.80;99.90;;;;;;5094728;28;20193;-63
2024/03/03 06:45:27;;;;;;;61.30;32.55;;;4.80;99.90;;;;;;5094793;28;20231;-63
2024/03/03 06:47:55;;;;;;;58.78;33.28;;;4.80;99.90;;;;;;5094748;28;20286;-63
2024/03/03 06:50:22;;;;;;;60.58;32.95;;;4.80;99.90;;;;;;5094637;28;20674;-63
2024/03/03 06:52:49;;;;;;;54.72;30.45;;;4.90;99.90;;;;;;5094554;28;20220;-64
2024/03/03 06:55:16;;;;;;;54.22;29.98;;;4.90;99.90;;;;;;5095186;28;20224;-62
2024/03/03 06:57:42;;;;;;;62.38;30.95;;;5.00;99.90;;;;;;5095092;28;20200;-64
2024/03/03 07:00:10;;;;;;;49.33;29.65;;;5.00;99.90;;;;;;5094730;28;20665;-63
2024/03/03 07:05:33;;;;;;;53.65;28.27;;;5.10;99.90;;;;;;5032482;28;20664;-63
2024/03/03 07:08:00;;;;;;;49.92;29.70;;;5.10;99.90;;;;;;5080296;28;20658;-64
2024/03/03 07:10:27;;;;;;;57.80;31.52;;;5.20;99.90;;;;;;5095627;28;20299;-64
2024/03/03 07:12:54;;;;;;;59.58;33.05;;;5.20;99.90;;;;;;5095850;28;20228;-63
2024/03/03 07:15:21;;;;;;;49.00;29.30;;;5.30;99.90;;;;;;5095089;28;20729;-62
2024/03/03 07:17:47;;;;;;;49.30;28.30;;;5.30;99.90;;;;;;5095277;28;20552;-63
2024/03/03 07:20:14;;;;;;;51.05;29.00;;;5.40;99.90;;;;;;5095227;28;20204;-63
2024/03/03 07:22:42;;;;;;;49.75;28.58;;;5.50;99.90;;;;;;5095618;28;20207;-63
2024/03/03 07:25:09;;;;;;;48.85;30.20;;;5.60;99.90;;;;;;5099148;28;20591;-62
2024/03/03 07:27:36;;;;;;;55.50;30.85;;;5.70;99.90;;;;;;5097494;28;20204;-63
2024/03/03 07:30:03;;;;;;;53.70;30.60;;;5.80;99.90;;;;;;5095675;28;20208;-62
2024/03/03 07:32:30;;;;;;;48.55;28.40;;;5.90;99.90;;;;;;5095768;28;20216;-62
2024/03/03 07:34:56;;;;;;;45.63;28.60;;;6.00;99.90;;;;;;5095756;28;20227;-61
2024/03/03 07:37:23;;;;;;;47.10;27.75;;;6.10;99.90;;;;;;5094961;28;20211;-63
2024/03/03 07:39:51;;;;;;;45.85;27.48;;;6.10;99.90;;;;;;5094825;28;20230;-62
2024/03/03 07:42:18;;;;;;;42.70;27.60;;;6.20;99.90;;;;;;5095268;28;20202;-61
2024/03/03 07:44:44;;;;;;;52.60;28.67;;;6.30;99.90;;;;;;5095830;28;20231;-63
2024/03/03 07:47:11;;;;;;;42.58;27.10;;;6.40;99.90;;;;;;5095847;28;20200;-62
2024/03/03 07:49:38;;;;;;;46.70;26.17;;;6.50;99.90;;;;;;5095924;28;20216;-61
2024/03/03 07:52:05;;;;;;;42.75;28.10;;;6.60;99.90;;;;;;5094512;28;20217;-62
2024/03/03 07:54:31;;;;;;;38.72;25.83;;;6.70;99.90;;;;;;5094211;28;20224;-63
2024/03/03 07:56:59;;;;;;;41.88;25.85;;;6.80;99.90;;;;;;5094996;28;20200;-63
2024/03/03 07:59:26;;;;;;;40.70;25.73;;;6.90;99.90;;;;;;5094311;28;20204;-64
2024/03/03 08:01:53;;;;;;;36.53;24.85;;;6.90;99.90;;;;;;5093637;28;20666;-62
2024/03/03 08:04:20;;;;;;;40.95;26.45;;;7.00;99.90;;;;;;5094337;28;20216;-62
2024/03/03 08:06:47;;;;;;;41.30;27.15;;;7.00;99.90;;;;;;5093445;28;20692;-62
2024/03/03 08:09:14;;;;;;;39.47;25.85;;;7.10;99.90;;;;;;5093806;28;20223;-62
2024/03/03 08:11:41;;;;;;;35.50;26.60;;;7.00;99.90;;;;;;5094351;28;20208;-64
2024/03/03 08:14:09;;;;;;;40.45;25.30;;;7.10;99.90;;;;;;5093728;28;20224;-65
2024/03/03 08:16:36;;;;;;;47.40;28.20;;;7.10;99.90;;;;;;5094466;28;20286;-64
2024/03/03 08:19:03;;;;;;;40.10;25.33;;;7.20;99.90;;;;;;5094878;28;20203;-64
2024/03/03 08:21:30;;;;;;;35.33;25.02;;;7.40;99.90;;;;;;5095957;28;20204;-65
2024/03/03 08:23:57;;;;;;;41.10;25.98;;;7.50;99.90;;;;;;5093961;28;20197;-64
2024/03/03 08:26:25;;;;;;;43.28;26.73;;;7.60;99.90;;;;;;5094720;28;20200;-64
2024/03/03 08:28:52;;;;;;;37.95;24.15;;;7.70;99.90;;;;;;5096802;28;20301;-62
2024/03/03 08:31:20;;;;;;;40.92;24.83;;;7.90;99.90;;;;;;5099032;28;20196;-63
2024/03/03 08:33:46;;;;;;;38.13;24.80;;;8.10;99.90;;;;;;5096373;28;20227;-63
2024/03/03 08:36:13;;;;;;;39.17;25.15;;;8.20;99.90;;;;;;5099062;28;20224;-62
2024/03/03 08:38:40;;;;;;;35.28;25.20;;;8.30;99.90;;;;;;5101752;28;20209;-61
2024/03/03 08:41:07;;;;;;;34.58;23.90;;;8.30;99.90;;;;;;5102625;28;20200;-63
2024/03/03 08:43:33;;;;;;;37.22;25.40;;;8.40;99.90;;;;;;5099707;28;20196;-61
2024/03/03 08:46:00;;;;;;;37.55;24.33;;;8.50;99.90;;;;;;5099451;28;20232;-61
2024/03/03 08:48:28;;;;;;;37.55;24.73;;;8.60;99.90;;;;;;5094669;28;20536;-60
2024/03/03 08:50:55;;;;;;;36.15;25.00;;;8.70;99.90;;;;;;5095231;28;20208;-63
2024/03/03 08:53:22;;;;;;;38.15;26.65;;;8.70;99.90;;;;;;5094549;28;20220;-63
2024/03/03 08:55:48;;;;;;;35.33;24.73;;;8.80;99.90;;;;;;5094158;28;20600;-63
2024/03/03 08:58:15;;;;;;;38.85;25.75;;;8.80;99.90;;;;;;5095060;28;20203;-63
2024/03/03 09:00:42;;;;;;;38.15;25.15;;;8.80;99.90;;;;;;5098118;28;20196;-61
2024/03/03 09:03:09;;;;;;;41.05;26.48;;;8.90;99.90;;;;;;5097445;28;20208;-62
2024/03/03 09:05:37;;;;;;;37.70;24.15;;;9.00;99.90;;;;;;5098033;28;20216;-62
2024/03/03 09:08:04;;;;;;;38.63;26.63;;;9.00;99.90;;;;;;5098187;28;20197;-62
2024/03/03 09:10:31;;;;;;;33.50;25.73;;;9.10;99.90;;;;;;5100465;28;20574;-63
2024/03/03 09:12:57;;;;;;;43.73;27.10;;;9.20;99.90;;;;;;5098669;28;20488;-63
2024/03/03 09:15:24;;;;;;;33.30;25.40;;;9.30;99.90;;;;;;5098645;28;20466;-64
2024/03/03 09:17:51;;;;;;;37.47;25.30;;;9.30;99.90;;;;;;5098030;28;20822;-63
2024/03/03 09:20:18;;;;;;;36.05;23.40;;;9.40;99.90;;;;;;5098448;28;20208;-62
2024/03/03 09:22:46;;;;;;;34.67;25.00;;;9.40;99.90;;;;;;5100154;28;20226;-60
2024/03/03 09:25:13;;;;;;;35.77;24.47;;;9.40;99.90;;;;;;5098438;28;20466;-63
2024/03/03 09:27:40;;;;;;;36.83;26.40;;;9.40;99.90;;;;;;5099989;28;20438;-63
2024/03/03 09:30:08;;;;;;;39.00;26.67;;;9.50;99.90;;;;;;5106335;28;20201;-63
2024/03/03 09:32:34;;;;;;;39.87;26.30;;;9.50;99.90;;;;;;5107819;28;20446;-63
2024/03/03 09:35:01;;;;;;;35.95;26.98;;;9.50;99.90;;;;;;5104823;28;20493;-62
2024/03/03 09:37:28;;;;;;;37.40;25.58;;;9.60;99.90;;;;;;5106926;28;20264;-63
2024/03/03 09:39:56;;;;;;;36.88;24.35;;;9.60;99.90;;;;;;5103285;28;20207;-62
2024/03/03 09:42:23;;;;;;;33.28;26.27;;;9.60;99.90;;;;;;5104530;28;20200;-62
2024/03/03 09:44:52;;;;;;;39.80;27.33;;;9.70;99.90;;;;;;5107062;28;20220;-62
2024/03/03 09:47:20;;;;;;;36.87;26.33;;;9.80;99.90;;;;;;5102366;28;20442;-64
2024/03/03 09:49:48;;;;;;;37.40;26.27;;;9.90;99.90;;;;;;5099596;28;20434;-61
2024/03/03 09:52:15;;;;;;;37.53;26.77;;;10.00;99.90;;;;;;5097245;28;20951;-63
2024/03/03 09:54:42;;;;;;;41.27;27.93;;;10.10;99.90;;;;;;5096397;28;20863;-62
2024/03/03 09:57:13;;;;;;;40.27;26.83;;;10.10;99.90;;;;;;5097289;28;20434;-63
2024/03/03 09:59:40;;;;;;;37.80;26.30;;;10.20;99.90;;;;;;5096980;28;20427;-62
2024/03/03 10:02:15;;;;;;;38.57;26.17;;;10.20;99.90;;;;;;5097129;28;20438;-62
2024/03/03 10:04:44;;;;;;;39.33;28.10;;;10.30;99.90;;;;;;5096806;28;20458;-62
2024/03/03 10:07:12;;;;;;;39.37;26.40;;;10.40;99.90;;;;;;5096912;28;20450;-62
2024/03/03 10:09:40;;;;;;;38.20;26.17;;;10.40;99.90;;;;;;5097046;28;20441;-62
2024/03/03 10:12:09;;;;;;;37.10;25.87;;;10.40;99.90;;;;;;5095515;28;20974;-62
2024/03/03 10:14:39;;;;;;;39.73;27.10;;;10.40;99.90;;;;;;5096305;28;20486;-62
2024/03/03 10:17:07;;;;;;;41.90;27.87;;;10.50;99.90;;;;;;5095746;28;20820;-62
2024/03/03 10:19:33;;;;;;;39.50;27.30;;;10.50;99.90;;;;;;5096151;28;20932;-63
2024/03/03 10:22:01;;;;;;;38.60;28.33;;;10.40;99.90;;;;;;5096314;28;20447;-63
2024/03/03 10:24:29;;;;;;;41.03;27.83;;;10.40;99.90;;;;;;5096217;28;20458;-63
2024/03/03 10:26:57;;;;;;;42.00;29.00;;;10.40;99.90;;;;;;5095984;28;20434;-63
2024/03/03 10:29:25;;;;;;;45.23;30.77;;;10.50;99.90;;;;;;5096130;28;20445;-63
2024/03/03 10:31:53;;;;;;;41.30;29.67;;;10.50;99.90;;;;;;5096511;28;20797;-64
2024/03/03 10:34:20;;;;;;;39.97;28.13;;;10.60;99.90;;;;;;5096311;28;20505;-63
2024/03/03 10:36:48;;;;;;;42.73;28.53;;;10.70;99.90;;;;;;5096083;28;20446;-62
2024/03/03 10:39:16;;;;;;;39.50;27.07;;;10.70;99.90;;;;;;5096063;28;20446;-63
2024/03/03 10:41:43;;;;;;;41.37;29.87;;;10.80;99.90;;;;;;5095979;28;20545;-63
2024/03/03 10:44:10;;;;;;;41.40;30.17;;;10.90;99.90;;;;;;5096591;28;20454;-63
2024/03/03 10:46:38;;;;;;;43.03;29.10;;;10.90;99.90;;;;;;5096365;28;20438;-61
2024/03/03 10:49:06;;;;;;;43.03;29.67;;;10.90;99.90;;;;;;5095742;28;20819;-62
2024/03/03 10:51:33;;;;;;;40.67;27.53;;;11.00;99.90;;;;;;5096197;28;20932;-63
2024/03/03 10:54:02;;;;;;;39.03;27.60;;;11.10;99.90;;;;;;5095738;28;20486;-63
2024/03/03 10:56:30;;;;;;;37.87;27.00;;;11.10;99.90;;;;;;5095583;28;20449;-63
2024/03/03 10:58:58;;;;;;;41.37;28.17;;;11.20;99.90;;;;;;5096575;28;20439;-62
2024/03/03 11:01:25;;;;;;;37.23;28.50;;;11.30;99.90;;;;;;5096078;28;20809;-63
2024/03/03 11:03:55;;;;;;;38.73;26.80;;;11.50;99.90;;;;;;5097433;28;20444;-64
2024/03/03 11:06:24;;;;;;;39.70;27.40;;;11.60;99.90;;;;;;5097298;28;20951;-63
2024/03/03 11:08:52;;;;;;;34.40;26.77;;;11.70;99.90;;;;;;5096088;28;20446;-63
2024/03/03 11:11:23;;;;;;;39.27;28.10;;;11.70;99.90;;;;;;5095417;28;20527;-62
2024/03/03 11:13:56;;;;;;;36.43;25.20;;;11.80;99.90;;;;;;5095240;28;20890;-63
2024/03/03 11:16:28;;;;;;;39.73;26.67;;;11.90;99.90;;;;;;5095211;28;20426;-63
2024/03/03 11:19:00;;;;;;;36.83;27.53;;;12.00;99.90;;;;;;5096263;28;20431;-63
2024/03/03 11:21:29;;;;;;;36.30;25.20;;;12.10;99.90;;;;;;5094647;28;20415;-64
2024/03/03 11:24:01;;;;;;;32.63;23.73;;;12.10;99.90;;;;;;5095664;28;20495;-62
2024/03/03 11:26:34;;;;;;;35.00;26.57;;;12.30;99.90;;;;;;5096647;28;20445;-63
2024/03/03 11:29:01;;;;;;;37.07;26.80;;;12.40;99.90;;;;;;5098119;28;20446;-64
2024/03/03 11:31:28;;;;;;;34.57;25.87;;;12.40;99.90;;;;;;5095467;28;20970;-63
2024/03/03 11:33:56;;;;;;;33.77;24.77;;;12.50;99.90;;;;;;5097376;28;20478;-63
2024/03/03 11:36:26;;;;;;;36.77;26.37;;;12.50;99.90;;;;;;5095224;28;20454;-63
2024/03/03 11:38:57;;;;;;;34.70;25.17;;;12.60;99.90;;;;;;5095157;28;20438;-64
2024/03/03 11:41:24;;;;;;;39.33;26.87;;;12.60;99.90;;;;;;5094879;28;20918;-62
2024/03/03 11:43:52;;;;;;;33.47;25.20;;;12.60;99.90;;;;;;5095472;28;20430;-62
2024/03/03 11:46:48;;;;;;;33.80;24.00;;;12.60;99.90;;;;;;5095012;28;20442;-62
2024/03/03 11:49:17;;;;;;;30.20;23.83;;;12.50;99.90;;;;;;5095641;28;20547;-61
2024/03/03 11:51:43;;;;;;;32.43;24.57;;;12.50;99.90;;;;;;5095129;28;20438;-62
2024/03/03 11:54:14;;;;;;;34.97;24.40;;;12.50;99.90;;;;;;5095554;28;20478;-62
2024/03/03 11:56:46;;;;;;;34.77;24.80;;;12.50;99.90;;;;;;5099672;28;20445;-63
2024/03/03 11:59:14;;;;;;;31.90;24.10;;;12.40;99.90;;;;;;5096914;28;20449;-63
2024/03/03 12:01:46;;;;;;;31.60;24.03;;;12.40;99.90;;;;;;5095635;28;20445;-63
2024/03/03 12:04:13;;;;;;;29.80;22.80;;;12.40;99.90;;;;;;5096187;28;20523;-63
2024/03/03 12:06:42;;;;;;;32.90;24.33;;;12.40;99.90;;;;;;5095623;28;20439;-63
2024/03/03 12:09:11;;;;;;;35.03;25.27;;;12.40;99.90;;;;;;5095169;28;20442;-63
2024/03/03 12:11:38;;;;;;;32.90;25.00;;;12.50;99.90;;;;;;5094731;28;20456;-64
2024/03/03 12:14:06;;;;;;;32.50;23.97;;;12.50;99.90;;;;;;5094167;28;20568;-63
2024/03/03 12:16:33;;;;;;;35.97;23.73;;;12.60;99.90;;;;;;5094721;28;20451;-62
2024/03/03 12:19:00;;;;;;;31.77;23.43;;;12.60;99.90;;;;;;5094207;28;20450;-63
2024/03/03 12:21:27;;;;;;;36.10;26.20;;;12.70;99.90;;;;;;5094500;28;20449;-63
2024/03/03 12:23:54;;;;;;;30.90;23.03;;;12.80;99.90;;;;;;5093919;28;20722;-63
2024/03/03 12:26:23;;;;;;;34.73;25.27;;;13.00;99.90;;;;;;5094230;28;20516;-63
2024/03/03 12:28:50;;;;;;;33.27;22.90;;;13.10;99.90;;;;;;5093896;28;20442;-62
2024/03/03 12:31:17;;;;;;;28.20;22.63;;;13.10;99.90;;;;;;5093491;28;20469;-62
2024/03/03 12:33:44;;;;;;;29.53;23.30;;;13.20;99.90;;;;;;5095103;28;21005;-64
2024/03/03 12:36:12;;;;;;;29.33;22.30;;;13.20;99.90;;;;;;5097844;28;20461;-63
2024/03/03 12:38:39;;;;;;;32.63;22.87;;;13.40;99.90;;;;;;5097878;28;20446;-63
2024/03/03 12:41:06;;;;;;;25.77;21.97;;;13.60;99.90;;;;;;5097955;28;20521;-63